Terminal Aerodrome Forecast
Issued by NWS

Current Version | Previous Version | Text Only | Print | Product List | Glossary On
Versions: 1 2 3 4 5 6 7 8 9 10 11 12 13 14 15 16 17
677
FTUS46 KPDT 241740
TAFRDM
TAF
KRDM 241740Z 2418/2518 15004KT P6SM FEW070
     FM242200 VRB06KT P6SM SKC
     FM250900 18004KT P6SM BKN180=

USA.gov is the U.S. government's official web portal to all federal, state and local government web resources and services.